Portada
METAR-TAF:

METAR-TAF

Aeropuertos :

Aeropuerto de Bastia-Poretta

Bastia, Francia

latitud: 42-33N, longitud: 009-29E, altitud: 8 m

Observación

El informe se hizo hace 57 minutos, a las 00:30 UTC
Viento 5 kt del suroeste
Temperatura 9°C
Humedad 81%
Presión 1012 hPa
Visibilidad 10 km o más
Escasas nubes a una altura de 6800 ft
Nubes dispersas a una altura de 8000 ft
Cielo nuboso a una altura de 10000 ft

METAR: LFKB 030030Z AUTO 22005KT 9999 FEW068 SCT080 BKN100 09/06 Q1012 NOSIG

Hora: 03:27 (01:27 UTC)

Pronóstico

El informe se hizo hace 5 horas y 27 minutos, a las 20:00 UTC
Pronóstico válido del 02 a las 21 UTC al 03 a las 21 UTC
Viento 5 kt del suroeste
Visibilidad 10 km o más
Escasas nubes a una altura de 3500 ft
Cielo nuboso a una altura de 10000 ft
Evolucionando progresivamente
del 03 a las 08 UTC al 03 a las 10 UTC
Viento 10 kt del este-noreste

TAF: LFKB 022000Z 0221/0321 22005KT 9999 FEW035 BKN100 TX15/0312Z TN03/0304Z BECMG 0308/0310 07010KT

Observaciones y pronósticos meteorológicos de más de 4000 aeropuertos (mensajes METAR y TAF).

Los puntos amarillos y rojos representan las estaciones disponibles.

Ponga el ratón en el punto deseado para ver el nombre de la estación.

Haga clic para ver las observaciones y los pronósticos meteorológicos.

Para cambiar el mapa : haga clic en los botones verdes con una cruz de color negro para hacer un zoom, en el botón verde con un guión para alejar o en las flechas verdes para mapas adyacentes.


METAR-TAF: